sensor_id;sensor_type;location;lat;lon;timestamp;pressure;altitude;pressure_sealevel;temperature;humidity
37486;BME280;23341;50.296;18.960;2023-09-07T00:04:42;50573.97;;;-144.43;99.67
37486;BME280;23341;50.296;18.960;2023-09-07T00:09:48;50538.00;;;-144.43;100.00
37486;BME280;23341;50.296;18.960;2023-09-07T00:14:53;50550.00;;;-144.43;100.00
37486;BME280;23341;50.296;18.960;2023-09-07T00:19:57;50575.97;;;-144.43;100.00
37486;BME280;23341;50.296;18.960;2023-09-07T00:25:04;50589.97;;;-144.43;100.00
37486;BME280;23341;50.296;18.960;2023-09-07T00:30:10;50564.00;;;-144.43;100.00
37486;BME280;23341;50.296;18.960;2023-09-07T00:35:14;50558.00;;;-144.43;100.00
37486;BME280;23341;50.296;18.960;2023-09-07T00:40:20;50562.00;;;-144.43;100.00
37486;BME280;23341;50.296;18.960;2023-09-07T00:45:24;50587.97;;;-144.43;100.00
37486;BME280;23341;50.296;18.960;2023-09-07T00:50:29;50546.00;;;-144.43;100.00
37486;BME280;23341;50.296;18.960;2023-09-07T00:55:35;50564.00;;;-144.43;100.00
37486;BME280;23341;50.296;18.960;2023-09-07T01:00:40;50560.00;;;-144.43;100.00
37486;BME280;23341;50.296;18.960;2023-09-07T01:05:49;50550.00;;;-144.43;100.00
37486;BME280;23341;50.296;18.960;2023-09-07T01:10:56;50550.00;;;-144.43;100.00
37486;BME280;23341;50.296;18.960;2023-09-07T01:16:00;50569.97;;;-144.43;100.00
37486;BME280;23341;50.296;18.960;2023-09-07T01:21:06;50556.00;;;-144.43;100.00
37486;BME280;23341;50.296;18.960;2023-09-07T01:26:13;50564.00;;;-144.43;100.00
37486;BME280;23341;50.296;18.960;2023-09-07T01:31:17;50569.97;;;-144.43;100.00
37486;BME280;23341;50.296;18.960;2023-09-07T01:36:22;50591.97;;;-144.43;100.00
37486;BME280;23341;50.296;18.960;2023-09-07T01:41:28;50585.97;;;-144.43;100.00
37486;BME280;23341;50.296;18.960;2023-09-07T01:46:32;50569.97;;;-144.43;100.00
37486;BME280;23341;50.296;18.960;2023-09-07T01:51:38;50569.97;;;-144.43;100.00
37486;BME280;23341;50.296;18.960;2023-09-07T01:56:44;50577.97;;;-144.43;100.00
37486;BME280;23341;50.296;18.960;2023-09-07T02:01:49;50581.97;;;-144.43;100.00
37486;BME280;23341;50.296;18.960;2023-09-07T02:06:53;50587.97;;;-144.43;100.00
37486;BME280;23341;50.296;18.960;2023-09-07T02:11:59;50550.00;;;-144.43;100.00
37486;BME280;23341;50.296;18.960;2023-09-07T02:17:04;50575.97;;;-144.43;100.00
37486;BME280;23341;50.296;18.960;2023-09-07T02:22:09;50565.97;;;-144.43;100.00
37486;BME280;23341;50.296;18.960;2023-09-07T02:27:15;50579.97;;;-144.43;100.00
37486;BME280;23341;50.296;18.960;2023-09-07T02:32:20;50595.97;;;-144.43;100.00
37486;BME280;23341;50.296;18.960;2023-09-07T02:37:24;50625.97;;;-144.43;100.00
37486;BME280;23341;50.296;18.960;2023-09-07T02:42:30;50621.97;;;-144.43;100.00
37486;BME280;23341;50.296;18.960;2023-09-07T02:47:36;50605.97;;;-144.43;100.00
37486;BME280;23341;50.296;18.960;2023-09-07T02:52:40;50643.97;;;-144.43;100.00
37486;BME280;23341;50.296;18.960;2023-09-07T02:57:46;50645.97;;;-144.43;100.00
37486;BME280;23341;50.296;18.960;2023-09-07T03:02:51;50657.94;;;-144.43;100.00
37486;BME280;23341;50.296;18.960;2023-09-07T03:07:55;50659.94;;;-144.43;100.00
37486;BME280;23341;50.296;18.960;2023-09-07T03:13:01;50659.94;;;-144.43;100.00
37486;BME280;23341;50.296;18.960;2023-09-07T03:18:06;50667.94;;;-144.43;100.00
37486;BME280;23341;50.296;18.960;2023-09-07T03:23:12;50683.94;;;-144.43;100.00
37486;BME280;23341;50.296;18.960;2023-09-07T03:28:17;50641.97;;;-144.43;100.00
37486;BME280;23341;50.296;18.960;2023-09-07T03:33:22;50673.94;;;-144.43;100.00
37486;BME280;23341;50.296;18.960;2023-09-07T03:38:27;50693.94;;;-144.43;100.00
37486;BME280;23341;50.296;18.960;2023-09-07T03:43:33;50677.94;;;-144.43;100.00
37486;BME280;23341;50.296;18.960;2023-09-07T03:48:37;50665.94;;;-144.43;100.00
37486;BME280;23341;50.296;18.960;2023-09-07T03:53:44;50681.94;;;-144.43;100.00
37486;BME280;23341;50.296;18.960;2023-09-07T03:58:50;50693.94;;;-144.43;100.00
37486;BME280;23341;50.296;18.960;2023-09-07T04:03:54;50677.94;;;-144.43;100.00
37486;BME280;23341;50.296;18.960;2023-09-07T04:08:58;50713.94;;;-144.43;100.00
37486;BME280;23341;50.296;18.960;2023-09-07T04:14:04;50759.91;;;-144.43;100.00
37486;BME280;23341;50.296;18.960;2023-09-07T04:19:08;50703.94;;;-144.43;100.00
37486;BME280;23341;50.296;18.960;2023-09-07T04:24:15;50685.94;;;-144.43;100.00
37486;BME280;23341;50.296;18.960;2023-09-07T04:29:20;50761.91;;;-144.43;100.00
37486;BME280;23341;50.296;18.960;2023-09-07T04:34:25;50745.91;;;-144.43;100.00
37486;BME280;23341;50.296;18.960;2023-09-07T04:39:30;50749.91;;;-144.43;100.00
37486;BME280;23341;50.296;18.960;2023-09-07T04:44:35;50763.91;;;-144.43;100.00
37486;BME280;23341;50.296;18.960;2023-09-07T04:49:40;50767.91;;;-144.43;100.00
37486;BME280;23341;50.296;18.960;2023-09-07T04:54:46;50777.91;;;-144.43;100.00
37486;BME280;23341;50.296;18.960;2023-09-07T04:59:53;50787.91;;;-144.43;100.00
37486;BME280;23341;50.296;18.960;2023-09-07T05:04:58;50819.91;;;-144.43;100.00
37486;BME280;23341;50.296;18.960;2023-09-07T05:10:03;50843.88;;;-144.43;100.00
37486;BME280;23341;50.296;18.960;2023-09-07T05:15:09;50845.88;;;-144.43;100.00
37486;BME280;23341;50.296;18.960;2023-09-07T05:20:14;50901.88;;;-144.43;100.00
37486;BME280;23341;50.296;18.960;2023-09-07T05:25:18;50883.88;;;-144.43;100.00
37486;BME280;23341;50.296;18.960;2023-09-07T05:30:24;50943.84;;;-144.43;100.00
37486;BME280;23341;50.296;18.960;2023-09-07T05:35:30;50941.88;;;-144.43;100.00
37486;BME280;23341;50.296;18.960;2023-09-07T05:40:37;50961.84;;;-144.43;100.00
37486;BME280;23341;50.296;18.960;2023-09-07T05:45:43;50941.88;;;-144.43;100.00
37486;BME280;23341;50.296;18.960;2023-09-07T05:50:48;50993.84;;;-144.43;100.00
37486;BME280;23341;50.296;18.960;2023-09-07T05:55:52;50995.84;;;-144.43;100.00
37486;BME280;23341;50.296;18.960;2023-09-07T06:00:58;51013.84;;;-144.43;100.00
37486;BME280;23341;50.296;18.960;2023-09-07T06:06:04;51053.84;;;-144.43;100.00
37486;BME280;23341;50.296;18.960;2023-09-07T06:11:08;51049.84;;;-144.43;100.00
37486;BME280;23341;50.296;18.960;2023-09-07T06:16:14;51129.81;;;-144.43;100.00
37486;BME280;23341;50.296;18.960;2023-09-07T06:21:19;51127.81;;;-144.43;97.44
37486;BME280;23341;50.296;18.960;2023-09-07T06:26:23;51197.78;;;-144.43;97.46
37486;BME280;23341;50.296;18.960;2023-09-07T06:31:29;51217.78;;;-144.43;94.13
37486;BME280;23341;50.296;18.960;2023-09-07T06:36:34;51341.78;;;-144.43;91.47
37486;BME280;23341;50.296;18.960;2023-09-07T06:41:51;52237.72;;;-144.43;74.11
37486;BME280;23341;50.296;18.960;2023-09-07T06:47:02;53690.03;;;-144.43;53.33
37486;BME280;23341;50.296;18.960;2023-09-07T06:52:07;54568.50;;;-144.43;47.59
37486;BME280;23341;50.296;18.960;2023-09-07T06:57:13;55695.38;;;-144.43;43.47
37486;BME280;23341;50.296;18.960;2023-09-07T07:02:19;56504.19;;;-144.43;41.39
37486;BME280;23341;50.296;18.960;2023-09-07T07:07:23;55951.63;;;-144.43;44.58
37486;BME280;23341;50.296;18.960;2023-09-07T07:12:28;57012.78;;;-144.43;45.28
37486;BME280;23341;50.296;18.960;2023-09-07T07:17:34;57187.00;;;-144.43;47.62
37486;BME280;23341;50.296;18.960;2023-09-07T07:22:39;56956.72;;;-144.43;51.60
37486;BME280;23341;50.296;18.960;2023-09-07T07:27:47;57457.38;;;-144.43;52.46
37486;BME280;23341;50.296;18.960;2023-09-07T07:32:53;55843.50;;;-144.43;56.79
37486;BME280;23341;50.296;18.960;2023-09-07T07:37:57;57605.56;;;-144.43;54.29
37486;BME280;23341;50.296;18.960;2023-09-07T07:43:02;57126.94;;;-144.43;55.97
37486;BME280;23341;50.296;18.960;2023-09-07T07:48:08;56968.75;;;-144.43;56.52
37486;BME280;23341;50.296;18.960;2023-09-07T07:53:15;56912.66;;;-144.43;57.31
37486;BME280;23341;50.296;18.960;2023-09-07T07:58:21;57241.09;;;-144.43;56.85
37486;BME280;23341;50.296;18.960;2023-09-07T08:03:27;56083.75;;;-144.43;58.40
37486;BME280;23341;50.296;18.960;2023-09-07T08:08:32;55911.56;;;-144.43;59.17
37486;BME280;23341;50.296;18.960;2023-09-07T08:13:37;56291.97;;;-144.43;59.51
37486;BME280;23341;50.296;18.960;2023-09-07T08:18:44;55709.38;;;-144.43;60.90
37486;BME280;23341;50.296;18.960;2023-09-07T08:23:51;55651.31;;;-144.43;61.51
37486;BME280;23341;50.296;18.960;2023-09-07T08:28:56;55571.25;;;-144.43;62.35
37486;BME280;23341;50.296;18.960;2023-09-07T08:34:01;55455.16;;;-144.43;63.31
37486;BME280;23341;50.296;18.960;2023-09-07T08:39:06;54946.75;;;-144.43;65.28
37486;BME280;23341;50.296;18.960;2023-09-07T08:44:16;54488.44;;;-144.43;66.17
37486;BME280;23341;50.296;18.960;2023-09-07T08:49:23;53529.97;;;-144.43;71.41
37486;BME280;23341;50.296;18.960;2023-09-07T08:54:28;52913.78;;;-144.43;75.07
37486;BME280;23341;50.296;18.960;2023-09-07T08:59:33;52771.75;;;-144.43;77.32
37486;BME280;23341;50.296;18.960;2023-09-07T09:04:40;52991.81;;;-144.43;75.83
37486;BME280;23341;50.296;18.960;2023-09-07T09:09:44;52925.78;;;-144.43;75.79
37486;BME280;23341;50.296;18.960;2023-09-07T09:14:48;53109.84;;;-144.43;76.05
37486;BME280;23341;50.296;18.960;2023-09-07T09:19:54;53489.97;;;-144.43;72.02
37486;BME280;23341;50.296;18.960;2023-09-07T09:25:03;53640.03;;;-144.43;71.04
37486;BME280;23341;50.296;18.960;2023-09-07T09:30:09;52855.78;;;-144.43;73.71
37486;BME280;23341;50.296;18.960;2023-09-07T09:35:16;52861.78;;;-144.43;75.26
37486;BME280;23341;50.296;18.960;2023-09-07T09:40:20;53017.81;;;-144.43;74.29
37486;BME280;23341;50.296;18.960;2023-09-07T09:45:26;53039.81;;;-144.43;73.25
37486;BME280;23341;50.296;18.960;2023-09-07T09:50:33;53221.88;;;-144.43;72.82
37486;BME280;23341;50.296;18.960;2023-09-07T09:55:40;52961.81;;;-144.43;72.96
37486;BME280;23341;50.296;18.960;2023-09-07T10:00:46;53207.88;;;-144.43;73.13
37486;BME280;23341;50.296;18.960;2023-09-07T10:05:53;53413.94;;;-144.43;71.14
37486;BME280;23341;50.296;18.960;2023-09-07T10:10:57;53013.81;;;-144.43;73.07
37486;BME280;23341;50.296;18.960;2023-09-07T10:16:03;52887.78;;;-144.43;73.25
37486;BME280;23341;50.296;18.960;2023-09-07T10:21:12;52931.81;;;-144.43;74.04
37486;BME280;23341;50.296;18.960;2023-09-07T10:26:17;52945.81;;;-144.43;72.86
37486;BME280;23341;50.296;18.960;2023-09-07T10:31:25;52833.78;;;-144.43;74.10
37486;BME280;23341;50.296;18.960;2023-09-07T10:36:55;52857.78;;;-144.43;72.41
37486;BME280;23341;50.296;18.960;2023-09-07T10:42:00;53225.88;;;-144.43;72.01
37486;BME280;23341;50.296;18.960;2023-09-07T10:47:04;53159.84;;;-144.43;71.45
37486;BME280;23341;50.296;18.960;2023-09-07T10:52:11;53131.84;;;-144.43;71.73
37486;BME280;23341;50.296;18.960;2023-09-07T10:57:15;53584.00;;;-144.43;69.27
37486;BME280;23341;50.296;18.960;2023-09-07T11:02:21;53449.94;;;-144.43;69.78
37486;BME280;23341;50.296;18.960;2023-09-07T11:07:26;53610.00;;;-144.43;69.04
37486;BME280;23341;50.296;18.960;2023-09-07T11:12:36;54086.22;;;-144.43;66.25
37486;BME280;23341;50.296;18.960;2023-09-07T11:17:41;54146.25;;;-144.43;67.21
37486;BME280;23341;50.296;18.960;2023-09-07T11:22:47;54288.31;;;-144.43;65.57
37486;BME280;23341;50.296;18.960;2023-09-07T11:27:57;53710.03;;;-144.43;67.88
37486;BME280;23341;50.296;18.960;2023-09-07T11:33:04;53858.09;;;-144.43;66.99
37486;BME280;23341;50.296;18.960;2023-09-07T11:38:12;53822.09;;;-144.43;68.13
37486;BME280;23341;50.296;18.960;2023-09-07T11:43:18;54258.31;;;-144.43;67.16
37486;BME280;23341;50.296;18.960;2023-09-07T11:48:22;53814.09;;;-144.43;66.73
37486;BME280;23341;50.296;18.960;2023-09-07T11:53:28;53908.13;;;-144.43;67.28
37486;BME280;23341;50.296;18.960;2023-09-07T11:58:34;53782.06;;;-144.43;66.66
37486;BME280;23341;50.296;18.960;2023-09-07T12:03:39;53980.16;;;-144.43;66.77
37486;BME280;23341;50.296;18.960;2023-09-07T12:08:58;54376.38;;;-144.43;65.70
37486;BME280;23341;50.296;18.960;2023-09-07T12:14:03;54240.31;;;-144.43;66.42
37486;BME280;23341;50.296;18.960;2023-09-07T12:19:08;53990.16;;;-144.43;66.76
37486;BME280;23341;50.296;18.960;2023-09-07T12:24:14;54138.25;;;-144.43;66.75
37486;BME280;23341;50.296;18.960;2023-09-07T12:29:18;54234.28;;;-144.43;65.45
37486;BME280;23341;50.296;18.960;2023-09-07T12:34:23;54250.31;;;-144.43;66.26
37486;BME280;23341;50.296;18.960;2023-09-07T12:39:29;54198.28;;;-144.43;65.23
37486;BME280;23341;50.296;18.960;2023-09-07T12:44:34;54218.28;;;-144.43;65.38
37486;BME280;23341;50.296;18.960;2023-09-07T12:49:38;54158.25;;;-144.43;65.01
37486;BME280;23341;50.296;18.960;2023-09-07T12:54:44;54330.34;;;-144.43;64.04
37486;BME280;23341;50.296;18.960;2023-09-07T12:59:48;54400.41;;;-144.43;63.35
37486;BME280;23341;50.296;18.960;2023-09-07T13:04:54;54486.44;;;-144.43;64.26
37486;BME280;23341;50.296;18.960;2023-09-07T13:10:00;54314.34;;;-144.43;63.88
37486;BME280;23341;50.296;18.960;2023-09-07T13:15:08;53926.13;;;-144.43;66.13
37486;BME280;23341;50.296;18.960;2023-09-07T13:20:12;54042.19;;;-144.43;65.67
37486;BME280;23341;50.296;18.960;2023-09-07T13:25:18;54150.25;;;-144.43;64.26
37486;BME280;23341;50.296;18.960;2023-09-07T13:30:22;54366.38;;;-144.43;64.47
37486;BME280;23341;50.296;18.960;2023-09-07T13:35:27;54460.44;;;-144.43;63.20
37486;BME280;23341;50.296;18.960;2023-09-07T13:40:33;54566.50;;;-144.43;63.14
37486;BME280;23341;50.296;18.960;2023-09-07T13:45:37;55164.91;;;-144.43;60.93
37486;BME280;23341;50.296;18.960;2023-09-07T13:50:42;54976.78;;;-144.43;62.00
37486;BME280;23341;50.296;18.960;2023-09-07T13:55:48;55038.81;;;-144.43;61.90
37486;BME280;23341;50.296;18.960;2023-09-07T14:00:52;55749.41;;;-144.43;60.20
37486;BME280;23341;50.296;18.960;2023-09-07T14:05:57;55371.09;;;-144.43;60.51
37486;BME280;23341;50.296;18.960;2023-09-07T14:11:02;55441.16;;;-144.43;60.24
37486;BME280;23341;50.296;18.960;2023-09-07T14:16:07;55945.59;;;-144.43;58.73
37486;BME280;23341;50.296;18.960;2023-09-07T14:21:14;56111.78;;;-144.43;59.26
37486;BME280;23341;50.296;18.960;2023-09-07T14:26:19;55515.22;;;-144.43;61.21
37486;BME280;23341;50.296;18.960;2023-09-07T14:31:24;55963.63;;;-144.43;60.33
37486;BME280;23341;50.296;18.960;2023-09-07T14:36:28;55613.28;;;-144.43;60.48
37486;BME280;23341;50.296;18.960;2023-09-07T14:41:34;56001.66;;;-144.43;60.11
37486;BME280;23341;50.296;18.960;2023-09-07T14:46:38;55603.28;;;-144.43;59.97
37486;BME280;23341;50.296;18.960;2023-09-07T14:51:44;54944.75;;;-144.43;61.86
37486;BME280;23341;50.296;18.960;2023-09-07T14:56:50;53832.09;;;-144.43;65.35
37486;BME280;23341;50.296;18.960;2023-09-07T15:01:54;53273.88;;;-144.43;67.46
37486;BME280;23341;50.296;18.960;2023-09-07T15:07:06;52963.81;;;-144.43;69.83
37486;BME280;23341;50.296;18.960;2023-09-07T15:12:12;52889.78;;;-144.43;71.58
37486;BME280;23341;50.296;18.960;2023-09-07T15:17:16;52777.75;;;-144.43;72.97
37486;BME280;23341;50.296;18.960;2023-09-07T15:22:21;52707.75;;;-144.43;73.03
37486;BME280;23341;50.296;18.960;2023-09-07T15:27:27;52591.75;;;-144.43;73.95
37486;BME280;23341;50.296;18.960;2023-09-07T15:32:31;52551.72;;;-144.43;74.97
37486;BME280;23341;50.296;18.960;2023-09-07T15:37:36;52433.72;;;-144.43;76.21
37486;BME280;23341;50.296;18.960;2023-09-07T15:42:41;52363.72;;;-144.43;75.81
37486;BME280;23341;50.296;18.960;2023-09-07T15:47:46;52309.72;;;-144.43;76.90
37486;BME280;23341;50.296;18.960;2023-09-07T15:52:51;52285.72;;;-144.43;77.84
37486;BME280;23341;50.296;18.960;2023-09-07T15:57:56;52291.72;;;-144.43;77.11
37486;BME280;23341;50.296;18.960;2023-09-07T16:03:01;52327.72;;;-144.43;77.94
37486;BME280;23341;50.296;18.960;2023-09-07T16:08:05;52171.69;;;-144.43;79.21
37486;BME280;23341;50.296;18.960;2023-09-07T16:13:14;52221.72;;;-144.43;79.25
37486;BME280;23341;50.296;18.960;2023-09-07T16:18:18;52145.69;;;-144.43;80.62
37486;BME280;23341;50.296;18.960;2023-09-07T16:23:23;52021.69;;;-144.43;81.78
37486;BME280;23341;50.296;18.960;2023-09-07T16:28:28;52043.69;;;-144.43;82.16
37486;BME280;23341;50.296;18.960;2023-09-07T16:33:33;52033.69;;;-144.43;82.63
37486;BME280;23341;50.296;18.960;2023-09-07T16:38:37;51961.69;;;-144.43;84.10
37486;BME280;23341;50.296;18.960;2023-09-07T16:43:43;51935.69;;;-144.43;85.28
37486;BME280;23341;50.296;18.960;2023-09-07T16:48:47;51849.72;;;-144.43;87.01
37486;BME280;23341;50.296;18.960;2023-09-07T16:53:52;51841.72;;;-144.43;88.10
37486;BME280;23341;50.296;18.960;2023-09-07T16:58:58;51813.72;;;-144.43;87.86
37486;BME280;23341;50.296;18.960;2023-09-07T17:04:05;51765.72;;;-144.43;89.27
37486;BME280;23341;50.296;18.960;2023-09-07T17:09:10;51653.72;;;-144.43;89.43
37486;BME280;23341;50.296;18.960;2023-09-07T17:14:16;51689.72;;;-144.43;91.02
37486;BME280;23341;50.296;18.960;2023-09-07T17:19:22;51597.72;;;-144.43;92.52
37486;BME280;23341;50.296;18.960;2023-09-07T17:24:27;51561.72;;;-144.43;93.04
37486;BME280;23341;50.296;18.960;2023-09-07T17:29:32;51545.75;;;-144.43;93.75
37486;BME280;23341;50.296;18.960;2023-09-07T17:34:37;51489.75;;;-144.43;94.38
37486;BME280;23341;50.296;18.960;2023-09-07T17:39:41;51441.75;;;-144.43;95.14
37486;BME280;23341;50.296;18.960;2023-09-07T17:44:47;51403.75;;;-144.43;95.36
37486;BME280;23341;50.296;18.960;2023-09-07T17:49:51;51367.75;;;-144.43;95.21
37486;BME280;23341;50.296;18.960;2023-09-07T17:54:55;51345.75;;;-144.43;95.16
37486;BME280;23341;50.296;18.960;2023-09-07T18:00:02;51321.78;;;-144.43;94.14
37486;BME280;23341;50.296;18.960;2023-09-07T18:05:07;51255.78;;;-144.43;93.94
37486;BME280;23341;50.296;18.960;2023-09-07T18:10:12;51295.78;;;-144.43;91.72
37486;BME280;23341;50.296;18.960;2023-09-07T18:15:17;51239.78;;;-144.43;88.88
37486;BME280;23341;50.296;18.960;2023-09-07T18:20:22;51189.81;;;-144.43;85.30
37486;BME280;23341;50.296;18.960;2023-09-07T18:25:26;51197.78;;;-144.43;83.27
37486;BME280;23341;50.296;18.960;2023-09-07T18:30:32;51187.81;;;-144.43;83.62
37486;BME280;23341;50.296;18.960;2023-09-07T18:35:37;51177.81;;;-144.43;82.92
37486;BME280;23341;50.296;18.960;2023-09-07T18:40:44;51185.81;;;-144.43;82.66
37486;BME280;23341;50.296;18.960;2023-09-07T18:45:50;51167.81;;;-144.43;83.33
37486;BME280;23341;50.296;18.960;2023-09-07T18:50:59;51157.81;;;-144.43;83.26
37486;BME280;23341;50.296;18.960;2023-09-07T18:56:05;51159.81;;;-144.43;84.17
37486;BME280;23341;50.296;18.960;2023-09-07T19:01:16;51085.81;;;-144.43;83.91
37486;BME280;23341;50.296;18.960;2023-09-07T19:06:21;51111.81;;;-144.43;85.23
37486;BME280;23341;50.296;18.960;2023-09-07T19:11:25;51081.81;;;-144.43;86.05
37486;BME280;23341;50.296;18.960;2023-09-07T19:16:31;51085.81;;;-144.43;86.45
37486;BME280;23341;50.296;18.960;2023-09-07T19:21:36;51047.84;;;-144.43;86.66
37486;BME280;23341;50.296;18.960;2023-09-07T19:26:40;51043.84;;;-144.43;86.75
37486;BME280;23341;50.296;18.960;2023-09-07T19:31:46;51047.84;;;-144.43;88.01
37486;BME280;23341;50.296;18.960;2023-09-07T19:36:50;51041.84;;;-144.43;88.58
37486;BME280;23341;50.296;18.960;2023-09-07T19:41:54;51007.84;;;-144.43;88.22
37486;BME280;23341;50.296;18.960;2023-09-07T19:47:01;50977.84;;;-144.43;89.61
37486;BME280;23341;50.296;18.960;2023-09-07T19:52:06;50961.84;;;-144.43;90.29
37486;BME280;23341;50.296;18.960;2023-09-07T19:57:10;51001.84;;;-144.43;90.92
37486;BME280;23341;50.296;18.960;2023-09-07T20:02:15;50973.84;;;-144.43;91.02
37486;BME280;23341;50.296;18.960;2023-09-07T20:07:20;50947.84;;;-144.43;92.02
37486;BME280;23341;50.296;18.960;2023-09-07T20:12:24;50969.84;;;-144.43;93.14
37486;BME280;23341;50.296;18.960;2023-09-07T20:17:33;50921.88;;;-144.43;93.57
37486;BME280;23341;50.296;18.960;2023-09-07T20:22:40;50905.88;;;-144.43;94.09
37486;BME280;23341;50.296;18.960;2023-09-07T20:27:46;50879.88;;;-144.43;95.14
37486;BME280;23341;50.296;18.960;2023-09-07T20:32:51;50917.88;;;-144.43;94.83
37486;BME280;23341;50.296;18.960;2023-09-07T20:37:56;50889.88;;;-144.43;96.60
37486;BME280;23341;50.296;18.960;2023-09-07T20:43:01;50865.88;;;-144.43;96.47
37486;BME280;23341;50.296;18.960;2023-09-07T20:48:08;50893.88;;;-144.43;97.10
37486;BME280;23341;50.296;18.960;2023-09-07T20:53:13;50861.88;;;-144.43;97.24
37486;BME280;23341;50.296;18.960;2023-09-07T20:58:18;50869.88;;;-144.43;97.39
37486;BME280;23341;50.296;18.960;2023-09-07T21:03:26;50823.91;;;-144.43;97.77
37486;BME280;23341;50.296;18.960;2023-09-07T21:08:30;50835.91;;;-144.43;98.32
37486;BME280;23341;50.296;18.960;2023-09-07T21:13:35;50859.88;;;-144.43;99.83
37486;BME280;23341;50.296;18.960;2023-09-07T21:18:41;50817.91;;;-144.43;100.00
37486;BME280;23341;50.296;18.960;2023-09-07T21:23:45;50837.91;;;-144.43;100.00
37486;BME280;23341;50.296;18.960;2023-09-07T21:28:50;50797.91;;;-144.43;100.00
37486;BME280;23341;50.296;18.960;2023-09-07T21:33:56;50815.91;;;-144.43;100.00
37486;BME280;23341;50.296;18.960;2023-09-07T21:39:00;50811.91;;;-144.43;100.00
37486;BME280;23341;50.296;18.960;2023-09-07T21:44:05;50835.91;;;-144.43;100.00
37486;BME280;23341;50.296;18.960;2023-09-07T21:49:11;50881.88;;;-144.43;100.00
37486;BME280;23341;50.296;18.960;2023-09-07T21:54:15;50817.91;;;-144.43;100.00
37486;BME280;23341;50.296;18.960;2023-09-07T21:59:20;50825.91;;;-144.43;100.00
37486;BME280;23341;50.296;18.960;2023-09-07T22:04:26;50795.91;;;-144.43;100.00
37486;BME280;23341;50.296;18.960;2023-09-07T22:09:30;50833.91;;;-144.43;100.00
37486;BME280;23341;50.296;18.960;2023-09-07T22:14:35;50813.91;;;-144.43;100.00
37486;BME280;23341;50.296;18.960;2023-09-07T22:19:41;50801.91;;;-144.43;100.00
37486;BME280;23341;50.296;18.960;2023-09-07T22:24:45;50815.91;;;-144.43;100.00
37486;BME280;23341;50.296;18.960;2023-09-07T22:29:50;50841.88;;;-144.43;100.00
37486;BME280;23341;50.296;18.960;2023-09-07T22:34:56;50829.91;;;-144.43;100.00
37486;BME280;23341;50.296;18.960;2023-09-07T22:40:00;50851.88;;;-144.43;100.00
37486;BME280;23341;50.296;18.960;2023-09-07T22:45:05;50879.88;;;-144.43;100.00
37486;BME280;23341;50.296;18.960;2023-09-07T22:50:11;50849.88;;;-144.43;100.00
37486;BME280;23341;50.296;18.960;2023-09-07T22:55:39;50833.91;;;-144.43;100.00
37486;BME280;23341;50.296;18.960;2023-09-07T23:00:45;50869.88;;;-144.43;100.00
37486;BME280;23341;50.296;18.960;2023-09-07T23:05:51;50861.88;;;-144.43;100.00
37486;BME280;23341;50.296;18.960;2023-09-07T23:10:55;50869.88;;;-144.43;100.00
37486;BME280;23341;50.296;18.960;2023-09-07T23:16:00;50893.88;;;-144.43;100.00
37486;BME280;23341;50.296;18.960;2023-09-07T23:21:06;50915.88;;;-144.43;100.00
37486;BME280;23341;50.296;18.960;2023-09-07T23:26:11;50921.88;;;-144.43;100.00
37486;BME280;23341;50.296;18.960;2023-09-07T23:31:17;50967.84;;;-144.43;100.00
37486;BME280;23341;50.296;18.960;2023-09-07T23:36:25;50961.84;;;-144.43;100.00
37486;BME280;23341;50.296;18.960;2023-09-07T23:41:30;50981.84;;;-144.43;100.00
37486;BME280;23341;50.296;18.960;2023-09-07T23:46:34;50985.84;;;-144.43;100.00
37486;BME280;23341;50.296;18.960;2023-09-07T23:51:40;51013.84;;;-144.43;100.00
37486;BME280;23341;50.296;18.960;2023-09-07T23:56:44;50991.84;;;-144.43;100.00
